Time;durP1;ratioP1;P1;durP2;ratioP2;P2;SDS_P1;SDS_P2;PMS_P1;PMS_P2;Temp;Humidity;BMP_temperature;BMP_pressure;BME280_temperature;BME280_humidity;BME280_pressure;Samples;Min_cycle;Max_cycle;Signal;HPM_P1;HPM_P2
2022/01/22 00:01:47;;;;;;;27.38;2.75;;;;;;;;;;6159562;23;19997;-74
2022/01/22 00:04:13;;;;;;;25.95;2.75;;;;;;;;;;6160421;23;20001;-74
2022/01/22 00:06:39;;;;;;;14.98;2.80;;;;;;;;;;6159805;23;20052;-74
2022/01/22 00:09:05;;;;;;;18.80;2.28;;;;;;;;;;6160750;23;20012;-74
2022/01/22 00:11:37;;;;;;;24.95;2.92;;;;;;;;;;6149616;23;20088;-74
2022/01/22 00:16:48;;;;;;;17.77;2.38;;;;;;;;;;6160451;23;20055;-74
2022/01/22 00:19:14;;;;;;;27.20;2.95;;;;;;;;;;6160080;23;20390;-73
2022/01/22 00:21:40;;;;;;;20.20;3.78;;;;;;;;;;6149696;23;20010;-72
2022/01/22 00:24:10;;;;;;;18.92;3.53;;;;;;;;;;6158807;23;20001;-72
2022/01/22 00:26:36;;;;;;;21.05;2.53;;;;;;;;;;6160638;23;20001;-73
2022/01/22 00:29:02;;;;;;;15.57;2.40;;;;;;;;;;6159908;23;20006;-73
2022/01/22 00:31:28;;;;;;;17.42;2.85;;;;;;;;;;6159590;23;20052;-73
2022/01/22 00:33:54;;;;;;;19.48;2.25;;;;;;;;;;6159410;23;20304;-72
2022/01/22 00:36:21;;;;;;;26.38;3.33;;;;;;;;;;6158905;23;20008;-72
2022/01/22 00:38:47;;;;;;;23.42;2.85;;;;;;;;;;6161268;23;19994;-73
2022/01/22 00:41:13;;;;;;;19.33;2.70;;;;;;;;;;6158952;23;20008;-73
2022/01/22 00:43:39;;;;;;;17.67;2.95;;;;;;;;;;6161909;23;20077;-73
2022/01/22 00:46:05;;;;;;;16.13;1.77;;;;;;;;;;6160116;23;20020;-73
2022/01/22 00:48:31;;;;;;;24.80;2.17;;;;;;;;;;6161196;23;20002;-72
2022/01/22 00:50:59;;;;;;;18.27;1.42;;;;;;;;;;6159332;23;20822;-73
2022/01/22 00:53:25;;;;;;;19.63;2.20;;;;;;;;;;6160942;23;20001;-73
2022/01/22 00:55:51;;;;;;;20.48;2.90;;;;;;;;;;6159985;23;20033;-73
2022/01/22 00:58:17;;;;;;;19.83;2.38;;;;;;;;;;6160781;23;20002;-73
2022/01/22 01:00:43;;;;;;;19.70;1.77;;;;;;;;;;6162973;23;20000;-73
2022/01/22 01:03:10;;;;;;;19.63;3.30;;;;;;;;;;6161404;23;20001;-73
2022/01/22 01:05:36;;;;;;;25.63;2.55;;;;;;;;;;6152632;23;20029;-73
2022/01/22 01:08:03;;;;;;;18.50;3.45;;;;;;;;;;6161796;23;20010;-73
2022/01/22 01:10:29;;;;;;;20.45;3.33;;;;;;;;;;6161964;23;20004;-73
2022/01/22 01:12:55;;;;;;;16.85;3.03;;;;;;;;;;6161275;23;20056;-74
2022/01/22 01:23:25;;;;;;;25.75;2.60;;;;;;;;;;6161737;23;20327;-73
2022/01/22 01:34:27;;;;;;;25.30;2.90;;;;;;;;;;6160264;23;20012;-72
2022/01/22 01:36:53;;;;;;;28.23;3.03;;;;;;;;;;6163032;23;20072;-73
2022/01/22 01:39:26;;;;;;;11.05;2.47;;;;;;;;;;6149903;23;20013;-72
2022/01/22 01:42:15;;;;;;;;;;;;;;;;;;6163367;23;20024;-72
2022/01/22 01:44:41;;;;;;;22.65;2.45;;;;;;;;;;6150975;23;19912;-73
2022/01/22 01:47:10;;;;;;;19.70;2.05;;;;;;;;;;6160950;23;20428;-73
2022/01/22 01:49:36;;;;;;;18.52;1.98;;;;;;;;;;6151139;23;20005;-73
2022/01/22 01:52:05;;;;;;;12.63;1.38;;;;;;;;;;6161173;23;20928;-72
2022/01/22 01:55:00;;;;;;;16.27;2.17;;;;;;;;;;6163163;23;19998;-73
2022/01/22 01:57:38;;;;;;;15.32;1.92;;;;;;;;;;6161459;23;20012;-73
2022/01/22 02:00:07;;;;;;;14.00;1.67;;;;;;;;;;6162206;23;20423;-73
2022/01/22 02:02:34;;;;;;;15.70;2.10;;;;;;;;;;6162176;23;19997;-73
2022/01/22 02:05:00;;;;;;;20.30;1.73;;;;;;;;;;6150130;23;20060;-73
2022/01/22 02:07:27;;;;;;;10.77;1.23;;;;;;;;;;6163295;23;20013;-73
2022/01/22 02:09:53;;;;;;;10.80;1.15;;;;;;;;;;6160690;23;20002;-73
2022/01/22 02:23:48;;;;;;;16.23;2.50;;;;;;;;;;6159480;23;20526;-73
2022/01/22 02:26:15;;;;;;;11.77;1.50;;;;;;;;;;6160939;23;20308;-73
2022/01/22 02:28:42;;;;;;;16.00;2.05;;;;;;;;;;6161198;23;20447;-73
2022/01/22 02:31:19;;;;;;;8.90;2.00;;;;;;;;;;6161443;23;19998;-73
2022/01/22 02:36:36;;;;;;;5.80;1.13;;;;;;;;;;6160915;23;20013;-73
2022/01/22 02:39:12;;;;;;;8.63;0.90;;;;;;;;;;6160902;23;20195;-73
2022/01/22 02:41:42;;;;;;;15.52;1.15;;;;;;;;;;6160104;23;20049;-73
2022/01/22 02:44:11;;;;;;;8.20;0.90;;;;;;;;;;6159982;23;20331;-73
2022/01/22 02:46:42;;;;;;;12.38;1.50;;;;;;;;;;6161917;23;20001;-73
2022/01/22 02:49:08;;;;;;;12.98;1.02;;;;;;;;;;6160426;23;20435;-73
2022/01/22 02:51:34;;;;;;;10.65;1.15;;;;;;;;;;6162242;23;20002;-74
2022/01/22 02:54:00;;;;;;;7.90;1.20;;;;;;;;;;6159924;23;20304;-73
2022/01/22 02:56:27;;;;;;;7.38;1.08;;;;;;;;;;6160925;23;20005;-74
2022/01/22 02:58:53;;;;;;;9.82;1.48;;;;;;;;;;6160462;23;20124;-74
2022/01/22 03:01:20;;;;;;;14.60;2.97;;;;;;;;;;6162400;23;20395;-75
2022/01/22 03:03:47;;;;;;;18.70;4.53;;;;;;;;;;6160825;23;20504;-74
2022/01/22 03:06:13;;;;;;;10.98;1.10;;;;;;;;;;6161461;23;20411;-75
2022/01/22 03:08:41;;;;;;;14.07;1.50;;;;;;;;;;6161501;23;20091;-74
2022/01/22 03:11:17;;;;;;;8.70;1.50;;;;;;;;;;6125158;23;20008;-74
2022/01/22 03:16:26;;;;;;;9.50;1.40;;;;;;;;;;6159729;23;20513;-73
2022/01/22 03:19:04;;;;;;;4.65;0.90;;;;;;;;;;6160373;23;20020;-74
2022/01/22 03:22:19;;;;;;;12.25;2.22;;;;;;;;;;6160487;23;20085;-74
2022/01/22 03:27:22;;;;;;;16.42;1.45;;;;;;;;;;6161162;23;20063;-74
2022/01/22 03:29:50;;;;;;;10.10;1.35;;;;;;;;;;6148762;23;20013;-73
2022/01/22 03:32:17;;;;;;;14.00;1.95;;;;;;;;;;6160930;23;20013;-73
2022/01/22 03:34:54;;;;;;;7.47;1.27;;;;;;;;;;6148593;23;20521;-73
2022/01/22 03:37:20;;;;;;;15.13;2.15;;;;;;;;;;6161570;23;20016;-73
2022/01/22 03:39:47;;;;;;;8.48;1.35;;;;;;;;;;6160913;23;20032;-72
2022/01/22 03:42:13;;;;;;;8.80;1.90;;;;;;;;;;6159811;23;20001;-72
2022/01/22 03:44:39;;;;;;;10.32;1.60;;;;;;;;;;6161587;23;20048;-72
2022/01/22 03:47:05;;;;;;;13.50;1.77;;;;;;;;;;6159351;23;20378;-72
2022/01/22 03:49:31;;;;;;;11.57;1.65;;;;;;;;;;6161034;23;20033;-72
2022/01/22 03:51:57;;;;;;;9.38;1.45;;;;;;;;;;6159898;23;20005;-72
2022/01/22 03:54:23;;;;;;;11.25;1.58;;;;;;;;;;6161532;23;19994;-73
2022/01/22 03:56:51;;;;;;;10.02;1.45;;;;;;;;;;6147760;23;20056;-73
2022/01/22 03:59:17;;;;;;;8.48;1.40;;;;;;;;;;6161907;23;20004;-73
2022/01/22 04:04:37;;;;;;;8.80;1.85;;;;;;;;;;6160904;23;20431;-73
2022/01/22 04:09:50;;;;;;;7.60;1.70;;;;;;;;;;6159455;23;20116;-72
2022/01/22 04:12:22;;;;;;;15.27;1.80;;;;;;;;;;6161614;23;20001;-72
2022/01/22 04:14:56;;;;;;;14.00;2.75;;;;;;;;;;6160777;23;19994;-73
2022/01/22 04:17:39;;;;;;;11.18;3.45;;;;;;;;;;6149082;23;20071;-73
2022/01/22 04:25:38;;;;;;;7.55;2.58;;;;;;;;;;6160851;23;20464;-72
2022/01/22 04:28:04;;;;;;;13.75;2.75;;;;;;;;;;6159915;23;20013;-72
2022/01/22 04:30:32;;;;;;;8.07;1.88;;;;;;;;;;6160924;23;20008;-71
2022/01/22 04:33:00;;;;;;;16.02;1.95;;;;;;;;;;6161465;23;19997;-73
2022/01/22 04:35:26;;;;;;;15.25;2.13;;;;;;;;;;6161911;23;19994;-73
2022/01/22 04:37:52;;;;;;;13.27;1.45;;;;;;;;;;6163576;23;20350;-73
2022/01/22 04:40:18;;;;;;;5.60;1.02;;;;;;;;;;6162167;23;20072;-73
2022/01/22 04:42:44;;;;;;;12.02;1.23;;;;;;;;;;6165730;23;19998;-73
2022/01/22 04:55:30;;;;;;;7.93;0.65;;;;;;;;;;6163867;23;20001;-73
2022/01/22 04:57:56;;;;;;;7.32;1.20;;;;;;;;;;6162103;23;20005;-72
2022/01/22 05:00:23;;;;;;;14.82;1.20;;;;;;;;;;6163415;23;20053;-73
2022/01/22 05:02:50;;;;;;;6.68;1.15;;;;;;;;;;6159450;23;20009;-73
2022/01/22 05:05:16;;;;;;;11.13;2.08;;;;;;;;;;6163424;23;20021;-73
2022/01/22 05:07:42;;;;;;;7.85;1.25;;;;;;;;;;6149632;23;20434;-73
2022/01/22 05:10:09;;;;;;;13.68;1.10;;;;;;;;;;6163112;23;20033;-73
2022/01/22 05:12:35;;;;;;;11.90;1.45;;;;;;;;;;6162050;23;20350;-73
2022/01/22 05:15:01;;;;;;;10.98;1.13;;;;;;;;;;6150551;23;20017;-73
2022/01/22 05:17:28;;;;;;;12.38;1.88;;;;;;;;;;6154069;23;20013;-74
2022/01/22 05:20:05;;;;;;;8.88;1.98;;;;;;;;;;6159753;23;20013;-74
2022/01/22 05:22:50;;;;;;;6.65;0.85;;;;;;;;;;6161639;23;20033;-74
2022/01/22 05:26:02;;;;;;;14.98;1.80;;;;;;;;;;6160657;23;20072;-74
2022/01/22 05:30:58;;;;;;;11.57;2.22;;;;;;;;;;6163200;23;20056;-74
2022/01/22 05:36:54;;;;;;;9.60;1.70;;;;;;;;;;6161498;23;20063;-74
2022/01/22 05:38:58;;;;;;;9.85;1.83;;;;;;;;;;6160798;23;20036;-74
2022/01/22 05:41:24;;;;;;;9.70;1.60;;;;;;;;;;6161760;23;20076;-74
2022/01/22 05:43:50;;;;;;;13.68;2.08;;;;;;;;;;6161662;23;20431;-74
2022/01/22 05:46:16;;;;;;;6.70;1.63;;;;;;;;;;6160514;23;20517;-74
2022/01/22 05:48:42;;;;;;;12.90;1.98;;;;;;;;;;6151627;23;20407;-74
2022/01/22 05:51:08;;;;;;;10.88;2.45;;;;;;;;;;6149946;23;20028;-74
2022/01/22 06:01:53;;;;;;;11.30;1.30;;;;;;;;;;6162328;23;20092;-74
2022/01/22 06:04:19;;;;;;;3.88;1.38;;;;;;;;;;6160060;23;20093;-74
2022/01/22 06:06:45;;;;;;;7.95;1.30;;;;;;;;;;6161684;23;20319;-74
2022/01/22 06:09:11;;;;;;;13.63;1.65;;;;;;;;;;6160560;23;20002;-74
2022/01/22 06:11:53;;;;;;;8.00;2.13;;;;;;;;;;6161061;23;20374;-75
2022/01/22 06:14:19;;;;;;;7.32;1.35;;;;;;;;;;6161200;23;20049;-75
2022/01/22 06:16:45;;;;;;;8.63;1.80;;;;;;;;;;6162260;23;20004;-74
2022/01/22 06:19:11;;;;;;;5.80;1.15;;;;;;;;;;6161253;23;20024;-74
2022/01/22 06:21:37;;;;;;;9.35;1.55;;;;;;;;;;6151836;23;20009;-74
2022/01/22 06:24:04;;;;;;;6.60;1.70;;;;;;;;;;6162038;23;20028;-74
2022/01/22 06:26:30;;;;;;;10.00;2.33;;;;;;;;;;6148361;23;20013;-74
2022/01/22 06:28:56;;;;;;;7.45;1.15;;;;;;;;;;6161514;23;20044;-74
2022/01/22 06:31:22;;;;;;;6.85;1.05;;;;;;;;;;6149370;23;20002;-74
2022/01/22 06:33:48;;;;;;;4.82;1.15;;;;;;;;;;6161317;23;20001;-74
2022/01/22 06:36:14;;;;;;;7.57;1.00;;;;;;;;;;6159422;23;20001;-73
2022/01/22 06:38:41;;;;;;;7.95;1.25;;;;;;;;;;6160592;23;20091;-73
2022/01/22 06:43:51;;;;;;;6.65;1.70;;;;;;;;;;6160504;23;20093;-73
2022/01/22 06:46:17;;;;;;;12.43;3.03;;;;;;;;;;6149641;23;20017;-73
2022/01/22 06:48:43;;;;;;;9.70;2.00;;;;;;;;;;6147678;23;20012;-71
2022/01/22 06:51:09;;;;;;;10.38;1.70;;;;;;;;;;6161177;23;20010;-74
2022/01/22 06:53:40;;;;;;;7.05;1.45;;;;;;;;;;6160925;23;20001;-73
2022/01/22 06:56:07;;;;;;;4.47;2.00;;;;;;;;;;6161663;23;20001;-73
2022/01/22 06:58:33;;;;;;;6.63;1.17;;;;;;;;;;6160864;23;19994;-74
2022/01/22 07:01:00;;;;;;;10.38;1.50;;;;;;;;;;6161657;23;19998;-73
2022/01/22 07:03:26;;;;;;;9.48;1.95;;;;;;;;;;6160653;23;20029;-73
2022/01/22 07:05:52;;;;;;;4.82;0.98;;;;;;;;;;6148907;23;20013;-74
2022/01/22 07:08:18;;;;;;;9.43;1.83;;;;;;;;;;6161545;23;20008;-74
2022/01/22 07:10:44;;;;;;;4.75;0.65;;;;;;;;;;6159240;23;20322;-74
2022/01/22 07:13:10;;;;;;;12.70;1.10;;;;;;;;;;6161121;23;20327;-74
2022/01/22 07:15:36;;;;;;;5.45;0.80;;;;;;;;;;6147624;23;20002;-73
2022/01/22 07:18:03;;;;;;;12.13;1.00;;;;;;;;;;6161281;23;20327;-74
2022/01/22 07:20:31;;;;;;;12.68;3.95;;;;;;;;;;6159331;23;20002;-75
2022/01/22 07:23:04;;;;;;;8.73;2.03;;;;;;;;;;6160753;23;20458;-73
2022/01/22 07:25:30;;;;;;;;;;;;;;;;;;6162017;23;20071;-73
2022/01/22 07:27:56;;;;;;;6.47;0.70;;;;;;;;;;6158986;23;19912;-75
2022/01/22 07:30:22;;;;;;;5.75;1.35;;;;;;;;;;6150591;23;20529;-75
2022/01/22 07:32:48;;;;;;;13.07;1.88;;;;;;;;;;6159670;23;20004;-75
2022/01/22 07:35:19;;;;;;;7.45;0.90;;;;;;;;;;6161688;23;20084;-75
2022/01/22 07:37:45;;;;;;;6.97;0.82;;;;;;;;;;6159322;23;20048;-75
2022/01/22 07:40:12;;;;;;;6.32;0.80;;;;;;;;;;6160771;23;20014;-75
2022/01/22 07:42:39;;;;;;;6.30;1.15;;;;;;;;;;6149457;23;20316;-75
2022/01/22 07:45:06;;;;;;;9.15;0.90;;;;;;;;;;6160666;23;20398;-76
2022/01/22 07:47:32;;;;;;;9.23;1.10;;;;;;;;;;6161896;23;20029;-75
2022/01/22 07:49:58;;;;;;;9.45;2.53;;;;;;;;;;6160145;23;20001;-74
2022/01/22 07:52:24;;;;;;;9.77;2.67;;;;;;;;;;6149639;23;20322;-74
2022/01/22 07:54:50;;;;;;;17.23;1.50;;;;;;;;;;6159977;23;20001;-76
2022/01/22 07:57:17;;;;;;;11.30;2.53;;;;;;;;;;6149940;23;20005;-75
2022/01/22 07:59:43;;;;;;;10.85;1.33;;;;;;;;;;6159922;23;20044;-75
2022/01/22 08:02:09;;;;;;;4.15;1.23;;;;;;;;;;6160187;23;20424;-76
2022/01/22 08:04:35;;;;;;;9.00;1.10;;;;;;;;;;6159613;23;20005;-75
2022/01/22 08:07:03;;;;;;;8.40;1.38;;;;;;;;;;6149897;23;20013;-75
2022/01/22 08:09:29;;;;;;;6.85;1.00;;;;;;;;;;6164261;23;20056;-75
2022/01/22 08:11:55;;;;;;;7.55;1.85;;;;;;;;;;6159653;23;20004;-75
2022/01/22 08:14:21;;;;;;;9.63;1.77;;;;;;;;;;6161236;23;20009;-75
2022/01/22 08:16:49;;;;;;;13.57;2.20;;;;;;;;;;6159863;23;20083;-75
2022/01/22 08:19:15;;;;;;;13.40;1.77;;;;;;;;;;6160750;23;20010;-75
2022/01/22 08:21:42;;;;;;;13.63;3.35;;;;;;;;;;6159399;23;20347;-78
2022/01/22 08:24:09;;;;;;;30.55;10.85;;;;;;;;;;6124832;23;20006;-75
2022/01/22 08:26:40;;;;;;;9.98;3.15;;;;;;;;;;6160422;23;19998;-76
2022/01/22 08:29:06;;;;;;;10.27;2.05;;;;;;;;;;6149257;23;20335;-74
2022/01/22 08:36:44;;;;;;;16.80;2.00;;;;;;;;;;6161124;23;20012;-75
2022/01/22 08:39:11;;;;;;;21.88;2.03;;;;;;;;;;6159689;23;19994;-75
2022/01/22 08:41:37;;;;;;;13.32;2.10;;;;;;;;;;6161678;23;20048;-76
2022/01/22 08:44:04;;;;;;;12.15;1.98;;;;;;;;;;6159215;23;19998;-76
2022/01/22 08:46:31;;;;;;;9.57;2.10;;;;;;;;;;6161516;23;20008;-76
2022/01/22 08:48:57;;;;;;;11.80;1.73;;;;;;;;;;6159552;23;19998;-75
2022/01/22 08:51:23;;;;;;;10.18;1.55;;;;;;;;;;6161614;23;20005;-76
2022/01/22 08:53:50;;;;;;;17.98;1.80;;;;;;;;;;6149953;23;20005;-75
2022/01/22 08:56:16;;;;;;;10.02;1.50;;;;;;;;;;6160288;23;20435;-76
2022/01/22 08:58:43;;;;;;;7.68;1.50;;;;;;;;;;6161081;23;20001;-76
2022/01/22 09:01:09;;;;;;;16.95;1.77;;;;;;;;;;6147445;23;20005;-76
2022/01/22 09:03:35;;;;;;;10.88;2.58;;;;;;;;;;6161413;23;20362;-76
2022/01/22 09:06:03;;;;;;;19.42;2.42;;;;;;;;;;6159376;23;20008;-75
2022/01/22 09:08:29;;;;;;;24.38;8.75;;;;;;;;;;6160145;23;20013;-75
2022/01/22 09:10:56;;;;;;;13.30;2.28;;;;;;;;;;6157576;23;20383;-73
2022/01/22 09:13:22;;;;;;;16.92;2.75;;;;;;;;;;6160099;23;20006;-76
2022/01/22 09:15:49;;;;;;;15.32;2.70;;;;;;;;;;6159459;23;20024;-74
2022/01/22 09:18:16;;;;;;;10.43;2.03;;;;;;;;;;6147666;23;20323;-74
2022/01/22 09:20:55;;;;;;;13.73;1.60;;;;;;;;;;6151734;23;20430;-74
2022/01/22 09:23:21;;;;;;;28.25;5.00;;;;;;;;;;6160077;23;20053;-74
2022/01/22 09:25:47;;;;;;;8.90;2.10;;;;;;;;;;6163052;23;20004;-74
2022/01/22 09:28:14;;;;;;;10.40;1.88;;;;;;;;;;6160014;23;20005;-74
2022/01/22 09:30:40;;;;;;;13.90;1.98;;;;;;;;;;6163165;23;19997;-74
2022/01/22 09:33:07;;;;;;;13.55;2.20;;;;;;;;;;6161359;23;20033;-74
2022/01/22 09:35:33;;;;;;;14.52;2.97;;;;;;;;;;6163146;23;20009;-74
2022/01/22 09:37:59;;;;;;;14.57;1.80;;;;;;;;;;6148884;23;20013;-74
2022/01/22 09:40:29;;;;;;;13.07;2.38;;;;;;;;;;6161870;23;20000;-74
2022/01/22 09:42:57;;;;;;;7.85;1.70;;;;;;;;;;6164456;23;19998;-74
2022/01/22 09:45:23;;;;;;;13.25;1.65;;;;;;;;;;6162173;23;20001;-74
2022/01/22 09:47:50;;;;;;;10.70;2.95;;;;;;;;;;6163538;23;20009;-74
2022/01/22 09:50:17;;;;;;;13.73;1.90;;;;;;;;;;6162364;23;19997;-74
2022/01/22 09:52:45;;;;;;;19.23;2.20;;;;;;;;;;6163477;23;20024;-74
2022/01/22 09:55:11;;;;;;;22.60;3.38;;;;;;;;;;6161732;23;20001;-73
2022/01/22 09:57:38;;;;;;;10.68;2.20;;;;;;;;;;6162145;23;20457;-73
2022/01/22 10:00:11;;;;;;;10.90;3.33;;;;;;;;;;6161118;23;19998;-74
2022/01/22 10:02:45;;;;;;;12.88;2.60;;;;;;;;;;6162097;23;20009;-74
2022/01/22 10:05:30;;;;;;;15.15;2.13;;;;;;;;;;6161432;23;20358;-74
2022/01/22 10:08:15;;;;;;;10.05;1.85;;;;;;;;;;6160175;23;20352;-74
2022/01/22 10:10:41;;;;;;;12.23;1.95;;;;;;;;;;6162645;23;19993;-74
2022/01/22 10:13:07;;;;;;;12.90;1.63;;;;;;;;;;6160574;23;20033;-74
2022/01/22 10:15:35;;;;;;;12.32;1.80;;;;;;;;;;6161014;23;20334;-74
2022/01/22 10:18:02;;;;;;;12.35;1.75;;;;;;;;;;6161254;23;20058;-74
2022/01/22 10:20:31;;;;;;;11.98;2.15;;;;;;;;;;6159737;23;20045;-74
2022/01/22 10:22:59;;;;;;;9.75;1.60;;;;;;;;;;6150151;23;20092;-74
2022/01/22 10:25:27;;;;;;;10.93;1.40;;;;;;;;;;6160906;23;20002;-74
2022/01/22 10:27:57;;;;;;;13.02;2.30;;;;;;;;;;6150091;23;20529;-74
2022/01/22 10:30:28;;;;;;;17.92;3.40;;;;;;;;;;6159614;23;20359;-74
2022/01/22 10:35:25;;;;;;;21.88;13.63;;;;;;;;;;6160985;23;20009;-75
2022/01/22 10:37:58;;;;;;;42.58;17.27;;;;;;;;;;6161043;23;20429;-76
2022/01/22 10:40:27;;;;;;;15.48;3.75;;;;;;;;;;6162248;23;20001;-77
2022/01/22 10:43:10;;;;;;;16.88;3.38;;;;;;;;;;6161304;23;19998;-77
2022/01/22 10:45:39;;;;;;;;;;;;;;;;;;6157840;23;20008;-76
2022/01/22 10:48:15;;;;;;;14.57;1.98;;;;;;;;;;6150737;23;19913;-74
2022/01/22 10:50:41;;;;;;;14.73;3.13;;;;;;;;;;6151939;23;20001;-75
2022/01/22 10:53:07;;;;;;;12.38;2.88;;;;;;;;;;6159721;23;20486;-75
2022/01/22 10:55:33;;;;;;;26.02;5.22;;;;;;;;;;6161591;23;20010;-74
2022/01/22 10:58:10;;;;;;;14.68;2.88;;;;;;;;;;6161509;23;20001;-74
2022/01/22 11:00:36;;;;;;;12.25;1.92;;;;;;;;;;6160703;23;20450;-74
2022/01/22 11:03:22;;;;;;;11.45;2.55;;;;;;;;;;6161520;23;19998;-74
2022/01/22 11:05:48;;;;;;;12.98;2.92;;;;;;;;;;6160633;23;20108;-74
2022/01/22 11:08:16;;;;;;;15.70;2.40;;;;;;;;;;6161636;23;20013;-74
2022/01/22 11:10:43;;;;;;;24.85;2.90;;;;;;;;;;6160539;23;20001;-73
2022/01/22 11:13:09;;;;;;;9.57;2.47;;;;;;;;;;6162404;23;20001;-73
2022/01/22 11:15:36;;;;;;;19.95;2.05;;;;;;;;;;6161830;23;20020;-73
2022/01/22 11:18:02;;;;;;;14.15;2.03;;;;;;;;;;6160993;23;20076;-73
2022/01/22 11:20:30;;;;;;;10.48;1.60;;;;;;;;;;6161364;23;20010;-73
2022/01/22 11:22:57;;;;;;;12.55;2.05;;;;;;;;;;6160554;23;20068;-73
2022/01/22 11:25:24;;;;;;;11.88;1.85;;;;;;;;;;6161066;23;20319;-73
2022/01/22 11:27:50;;;;;;;9.90;2.25;;;;;;;;;;6161236;23;20014;-74
2022/01/22 11:30:17;;;;;;;25.00;2.83;;;;;;;;;;6160189;23;20584;-74
2022/01/22 11:32:43;;;;;;;16.38;2.00;;;;;;;;;;6158776;23;20024;-76
2022/01/22 11:35:10;;;;;;;11.45;2.03;;;;;;;;;;6150536;23;20006;-74
2022/01/22 11:37:51;;;;;;;11.63;2.20;;;;;;;;;;6160625;23;20435;-75
2022/01/22 11:40:21;;;;;;;10.60;1.83;;;;;;;;;;6161483;23;20434;-75
2022/01/22 11:43:01;;;;;;;7.65;2.55;;;;;;;;;;6162357;23;20288;-74
2022/01/22 11:45:29;;;;;;;14.57;2.13;;;;;;;;;;6148875;23;20084;-77
2022/01/22 11:48:14;;;;;;;15.82;2.17;;;;;;;;;;6162109;23;20006;-75
2022/01/22 11:50:41;;;;;;;12.30;2.00;;;;;;;;;;6158822;23;20000;-77
2022/01/22 11:53:26;;;;;;;11.00;1.60;;;;;;;;;;6161473;23;19998;-78
2022/01/22 11:56:10;;;;;;;12.77;1.40;;;;;;;;;;6161496;23;20080;-75
2022/01/22 11:58:54;;;;;;;11.38;2.20;;;;;;;;;;6159609;23;20312;-75
2022/01/22 12:01:39;;;;;;;12.77;2.17;;;;;;;;;;6161115;23;20005;-75
2022/01/22 12:04:06;;;;;;;6.15;1.42;;;;;;;;;;6159810;23;20097;-74
2022/01/22 12:06:32;;;;;;;10.15;1.65;;;;;;;;;;6160092;23;20001;-76
2022/01/22 12:09:12;;;;;;;18.00;1.75;;;;;;;;;;6160227;23;20024;-75
2022/01/22 12:14:48;;;;;;;8.00;1.30;;;;;;;;;;6161609;23;20322;-75
2022/01/22 12:17:23;;;;;;;26.30;10.65;;;;;;;;;;6142671;23;20006;-75
2022/01/22 12:20:16;;;;;;;12.55;2.45;;;;;;;;;;6149153;23;20092;-74
2022/01/22 12:22:39;;;;;;;12.23;1.52;;;;;;;;;;6150534;23;20463;-75
2022/01/22 12:25:14;;;;;;;10.48;1.55;;;;;;;;;;6159721;23;20009;-75
2022/01/22 12:27:58;;;;;;;7.80;1.50;;;;;;;;;;6160594;23;20438;-75
2022/01/22 12:31:00;;;;;;;10.00;1.20;;;;;;;;;;6159739;23;20557;-75
2022/01/22 12:33:28;;;;;;;8.73;1.55;;;;;;;;;;6096600;23;20002;-75
2022/01/22 12:35:59;;;;;;;8.95;1.60;;;;;;;;;;6149437;23;20006;-75
2022/01/22 12:41:13;;;;;;;5.75;1.20;;;;;;;;;;6159677;23;20492;-75
2022/01/22 12:43:40;;;;;;;14.52;1.40;;;;;;;;;;6159468;23;20001;-76
2022/01/22 12:46:06;;;;;;;10.38;1.40;;;;;;;;;;6160455;23;20089;-75
2022/01/22 12:48:33;;;;;;;10.98;3.10;;;;;;;;;;6160288;23;20386;-75
2022/01/22 12:51:01;;;;;;;11.15;1.50;;;;;;;;;;6158536;23;20084;-75
2022/01/22 12:53:27;;;;;;;11.40;1.40;;;;;;;;;;6160956;23;20307;-75
2022/01/22 12:58:20;;;;;;;20.42;8.63;;;;;;;;;;6161874;23;20048;-75
2022/01/22 13:00:47;;;;;;;28.42;12.32;;;;;;;;;;6160995;23;20001;-75
2022/01/22 13:03:13;;;;;;;9.55;1.67;;;;;;;;;;6162796;23;20009;-74
2022/01/22 13:05:45;;;;;;;14.05;3.13;;;;;;;;;;6161537;23;20025;-75
2022/01/22 13:08:11;;;;;;;;;;;;;;;;;;6163090;23;20005;-75
2022/01/22 13:10:44;;;;;;;7.53;1.05;;;;;;;;;;6161916;23;19916;-74
2022/01/22 13:13:14;;;;;;;8.95;1.13;;;;;;;;;;6162633;23;20418;-75
2022/01/22 13:15:40;;;;;;;9.77;1.40;;;;;;;;;;6151308;23;20032;-75
2022/01/22 13:18:06;;;;;;;8.05;1.08;;;;;;;;;;6160627;23;20001;-75
2022/01/22 13:20:34;;;;;;;10.18;1.95;;;;;;;;;;6162740;23;20029;-75
2022/01/22 13:23:02;;;;;;;14.02;1.52;;;;;;;;;;6161371;23;20457;-75
2022/01/22 13:25:29;;;;;;;9.55;1.52;;;;;;;;;;6163173;23;20380;-74
2022/01/22 13:27:59;;;;;;;13.57;1.27;;;;;;;;;;6159787;23;20002;-75
2022/01/22 13:30:37;;;;;;;6.15;1.20;;;;;;;;;;6163212;23;20006;-74
2022/01/22 13:33:15;;;;;;;7.15;1.10;;;;;;;;;;6162856;23;20001;-74
2022/01/22 13:36:06;;;;;;;8.70;1.15;;;;;;;;;;6161965;23;20324;-74
2022/01/22 13:49:34;;;;;;;8.43;1.60;;;;;;;;;;6159692;23;20060;-74
2022/01/22 13:52:10;;;;;;;8.38;0.85;;;;;;;;;;6161515;23;20001;-74
2022/01/22 13:54:44;;;;;;;10.05;1.40;;;;;;;;;;6149182;23;19997;-74
2022/01/22 13:57:13;;;;;;;7.45;0.90;;;;;;;;;;6162587;23;20009;-74
2022/01/22 13:59:46;;;;;;;8.38;1.27;;;;;;;;;;6161268;23;20335;-74
2022/01/22 14:04:49;;;;;;;12.52;1.50;;;;;;;;;;6163294;23;20001;-74
2022/01/22 14:07:30;;;;;;;21.52;3.63;;;;;;;;;;6149628;23;20009;-74
2022/01/22 14:09:58;;;;;;;5.93;1.83;;;;;;;;;;6151720;23;20020;-74
2022/01/22 14:12:37;;;;;;;4.40;0.80;;;;;;;;;;6162261;23;19998;-74
2022/01/22 14:15:06;;;;;;;6.75;1.13;;;;;;;;;;6150674;23;20349;-73
2022/01/22 14:17:38;;;;;;;6.30;1.25;;;;;;;;;;6162382;23;20110;-73
2022/01/22 14:20:11;;;;;;;13.90;1.30;;;;;;;;;;6159923;23;20498;-74
2022/01/22 14:22:56;;;;;;;6.80;1.10;;;;;;;;;;6162995;23;20000;-74
2022/01/22 14:25:22;;;;;;;14.02;1.95;;;;;;;;;;6160869;23;20008;-74
2022/01/22 14:28:18;;;;;;;6.82;2.40;;;;;;;;;;6162455;23;20013;-74
2022/01/22 14:30:45;;;;;;;4.90;1.83;;;;;;;;;;6149300;23;20008;-74
2022/01/22 14:33:13;;;;;;;8.63;1.40;;;;;;;;;;6161928;23;20063;-74
2022/01/22 14:35:40;;;;;;;9.55;1.58;;;;;;;;;;6162672;23;20029;-74
2022/01/22 14:38:25;;;;;;;7.72;1.45;;;;;;;;;;6160943;23;20002;-74
2022/01/22 14:44:37;;;;;;;8.23;0.65;;;;;;;;;;6161472;23;20024;-74
2022/01/22 14:46:59;;;;;;;12.75;1.25;;;;;;;;;;6142610;23;20014;-74
2022/01/22 14:49:27;;;;;;;3.92;0.52;;;;;;;;;;6162400;23;19994;-74
2022/01/22 14:51:54;;;;;;;8.88;1.13;;;;;;;;;;6160686;23;20048;-74
2022/01/22 14:54:21;;;;;;;7.03;1.00;;;;;;;;;;6162601;23;20016;-74
2022/01/22 14:56:47;;;;;;;9.63;2.17;;;;;;;;;;6150940;23;20151;-74
2022/01/22 14:59:13;;;;;;;10.82;2.03;;;;;;;;;;6165742;23;20009;-75
2022/01/22 15:01:39;;;;;;;12.35;1.45;;;;;;;;;;6162404;23;20327;-74
2022/01/22 15:04:05;;;;;;;14.82;1.30;;;;;;;;;;6162675;23;20032;-75
2022/01/22 15:06:31;;;;;;;2.92;0.88;;;;;;;;;;6161710;23;20013;-75
2022/01/22 15:08:57;;;;;;;4.95;0.82;;;;;;;;;;6162109;23;20068;-74
2022/01/22 15:11:23;;;;;;;9.50;2.22;;;;;;;;;;6163632;23;20408;-74
2022/01/22 15:13:49;;;;;;;6.95;1.15;;;;;;;;;;6159982;23;20041;-73
2022/01/22 15:16:20;;;;;;;7.72;1.23;;;;;;;;;;6161977;23;20006;-73
2022/01/22 15:19:00;;;;;;;6.07;0.90;;;;;;;;;;6160824;23;20009;-73
2022/01/22 15:21:27;;;;;;;8.00;0.93;;;;;;;;;;6161247;23;20084;-73
2022/01/22 15:23:53;;;;;;;3.90;0.80;;;;;;;;;;6160894;23;20002;-74
2022/01/22 15:26:19;;;;;;;11.63;1.38;;;;;;;;;;6158744;23;20358;-74
2022/01/22 15:28:46;;;;;;;6.05;1.23;;;;;;;;;;6149410;23;20400;-74
2022/01/22 15:31:28;;;;;;;8.05;1.42;;;;;;;;;;6148788;23;20009;-74
2022/01/22 15:34:08;;;;;;;5.07;1.58;;;;;;;;;;6161971;23;20024;-74
2022/01/22 15:36:34;;;;;;;9.98;2.95;;;;;;;;;;6160771;23;20005;-74
2022/01/22 15:39:01;;;;;;;15.07;6.40;;;;;;;;;;6161498;23;20008;-75
2022/01/22 15:41:27;;;;;;;10.25;1.35;;;;;;;;;;6161488;23;19998;-75
2022/01/22 15:43:53;;;;;;;11.68;0.98;;;;;;;;;;6161191;23;19994;-75
2022/01/22 15:46:19;;;;;;;6.22;1.08;;;;;;;;;;6160781;23;20005;-74
2022/01/22 15:48:47;;;;;;;5.18;1.02;;;;;;;;;;6158769;23;20064;-75
2022/01/22 15:51:13;;;;;;;4.03;1.00;;;;;;;;;;6161536;23;20044;-75
2022/01/22 15:53:39;;;;;;;4.13;0.65;;;;;;;;;;6160574;23;20370;-76
2022/01/22 15:56:05;;;;;;;6.13;0.80;;;;;;;;;;6161074;23;20005;-75
2022/01/22 15:58:33;;;;;;;3.35;0.93;;;;;;;;;;6160349;23;20001;-75
2022/01/22 16:00:59;;;;;;;10.45;1.33;;;;;;;;;;6148915;23;20001;-75
2022/01/22 16:03:25;;;;;;;11.82;1.00;;;;;;;;;;6161042;23;20006;-75
2022/01/22 16:05:56;;;;;;;12.25;1.40;;;;;;;;;;6151111;23;20009;-75
2022/01/22 16:08:22;;;;;;;6.95;1.38;;;;;;;;;;6160843;23;20359;-75
2022/01/22 16:10:49;;;;;;;6.25;1.17;;;;;;;;;;6159393;23;20463;-74
2022/01/22 16:13:16;;;;;;;21.13;3.15;;;;;;;;;;6159204;23;20000;-74
2022/01/22 16:15:42;;;;;;;5.45;1.60;;;;;;;;;;6159490;23;20009;-75
2022/01/22 16:18:08;;;;;;;11.63;2.63;;;;;;;;;;6161131;23;20002;-75
2022/01/22 16:20:34;;;;;;;12.48;2.58;;;;;;;;;;6159371;23;20334;-74
2022/01/22 16:23:01;;;;;;;10.60;1.60;;;;;;;;;;6149386;23;20068;-75
2022/01/22 16:25:27;;;;;;;12.50;2.00;;;;;;;;;;6159337;23;19997;-74
2022/01/22 16:27:53;;;;;;;13.60;2.63;;;;;;;;;;6161693;23;20005;-73
2022/01/22 16:30:19;;;;;;;11.05;1.90;;;;;;;;;;6164564;23;20009;-74
2022/01/22 16:32:45;;;;;;;11.27;1.73;;;;;;;;;;6150506;23;20001;-75
2022/01/22 16:35:11;;;;;;;6.45;1.10;;;;;;;;;;6164261;23;19998;-76
2022/01/22 16:37:39;;;;;;;4.57;1.17;;;;;;;;;;6151560;23;20006;-75